sensor_id;sensor_type;location;lat;lon;timestamp;pressure;altitude;pressure_sealevel;temperature;humidity
55656;BME280;41530;52.382;5.270;2023-02-15T00:01:41;103176.66;;;15.49;49.20
55656;BME280;41530;52.382;5.270;2023-02-15T00:04:09;103172.38;;;15.46;49.09
55656;BME280;41530;52.382;5.270;2023-02-15T00:06:38;103179.47;;;15.46;49.17
55656;BME280;41530;52.382;5.270;2023-02-15T00:09:05;103161.84;;;15.45;49.02
55656;BME280;41530;52.382;5.270;2023-02-15T00:11:32;103165.53;;;15.42;49.14
55656;BME280;41530;52.382;5.270;2023-02-15T00:14:20;103169.91;;;15.43;49.10
55656;BME280;41530;52.382;5.270;2023-02-15T00:16:47;103162.03;;;15.42;49.10
55656;BME280;41530;52.382;5.270;2023-02-15T00:19:16;103164.69;;;15.42;49.14
55656;BME280;41530;52.382;5.270;2023-02-15T00:21:43;103169.22;;;15.40;48.88
55656;BME280;41530;52.382;5.270;2023-02-15T00:24:12;103170.16;;;15.39;49.05
55656;BME280;41530;52.382;5.270;2023-02-15T00:26:40;103166.72;;;15.37;49.03
55656;BME280;41530;52.382;5.270;2023-02-15T00:29:08;103164.06;;;15.37;48.79
55656;BME280;41530;52.382;5.270;2023-02-15T00:31:35;103165.00;;;15.36;48.91
55656;BME280;41530;52.382;5.270;2023-02-15T00:36:33;103155.41;;;15.33;48.96
55656;BME280;41530;52.382;5.270;2023-02-15T00:38:59;103148.50;;;15.30;49.19
55656;BME280;41530;52.382;5.270;2023-02-15T00:41:26;103148.50;;;15.30;48.83
55656;BME280;41530;52.382;5.270;2023-02-15T00:43:53;103153.88;;;15.29;48.82
55656;BME280;41530;52.382;5.270;2023-02-15T00:46:19;103158.31;;;15.28;48.83
55656;BME280;41530;52.382;5.270;2023-02-15T00:48:46;103154.81;;;15.28;48.68
55656;BME280;41530;52.382;5.270;2023-02-15T00:51:12;103141.84;;;15.22;48.86
55656;BME280;41530;52.382;5.270;2023-02-15T00:53:39;103140.22;;;15.19;48.70
55656;BME280;41530;52.382;5.270;2023-02-15T00:56:06;103143.50;;;15.24;48.63
55656;BME280;41530;52.382;5.270;2023-02-15T00:58:32;103144.50;;;15.22;48.71
55656;BME280;41530;52.382;5.270;2023-02-15T01:01:04;103132.09;;;15.22;48.47
55656;BME280;41530;52.382;5.270;2023-02-15T01:03:31;103139.19;;;15.22;48.78
55656;BME280;41530;52.382;5.270;2023-02-15T01:05:58;103128.66;;;15.20;48.57
55656;BME280;41530;52.382;5.270;2023-02-15T01:08:25;103132.25;;;15.19;48.63
55656;BME280;41530;52.382;5.270;2023-02-15T01:10:53;103130.53;;;15.18;48.57
55656;BME280;41530;52.382;5.270;2023-02-15T01:13:20;103131.50;;;15.17;48.49
55656;BME280;41530;52.382;5.270;2023-02-15T01:15:52;103130.66;;;15.17;48.38
55656;BME280;41530;52.382;5.270;2023-02-15T01:18:19;103123.63;;;15.16;48.56
55656;BME280;41530;52.382;5.270;2023-02-15T01:20:47;103116.63;;;15.15;48.55
55656;BME280;41530;52.382;5.270;2023-02-15T01:23:14;103103.44;;;15.13;48.43
55656;BME280;41530;52.382;5.270;2023-02-15T01:25:41;103107.88;;;15.13;48.48
55656;BME280;41530;52.382;5.270;2023-02-15T01:28:08;103100.88;;;15.12;48.48
55656;BME280;41530;52.382;5.270;2023-02-15T01:30:34;103101.88;;;15.09;48.42
55656;BME280;41530;52.382;5.270;2023-02-15T01:33:01;103105.38;;;15.10;48.40
55656;BME280;41530;52.382;5.270;2023-02-15T01:35:28;103103.66;;;15.09;48.54
55656;BME280;41530;52.382;5.270;2023-02-15T01:37:56;103101.09;;;15.07;48.22
55656;BME280;41530;52.382;5.270;2023-02-15T01:40:23;103101.09;;;15.07;48.25
55656;BME280;41530;52.382;5.270;2023-02-15T01:42:51;103087.06;;;15.05;48.23
55656;BME280;41530;52.382;5.270;2023-02-15T01:50:25;103088.09;;;15.03;48.17
55656;BME280;41530;52.382;5.270;2023-02-15T01:56:05;103076.72;;;15.01;48.25
55656;BME280;41530;52.382;5.270;2023-02-15T01:58:34;103083.88;;;14.98;48.35
55656;BME280;41530;52.382;5.270;2023-02-15T02:01:02;103073.44;;;14.95;48.20
55656;BME280;41530;52.382;5.270;2023-02-15T02:06:16;103084.03;;;14.95;48.10
55656;BME280;41530;52.382;5.270;2023-02-15T02:08:43;103077.97;;;14.93;48.05
55656;BME280;41530;52.382;5.270;2023-02-15T02:11:13;103075.31;;;14.93;47.85
55656;BME280;41530;52.382;5.270;2023-02-15T02:13:42;103067.44;;;14.92;48.17
55656;BME280;41530;52.382;5.270;2023-02-15T02:31:10;103057.25;;;14.84;47.79
55656;BME280;41530;52.382;5.270;2023-02-15T02:40:19;103044.16;;;14.81;48.14
55656;BME280;41530;52.382;5.270;2023-02-15T02:42:54;103044.22;;;14.80;47.86
55656;BME280;41530;52.382;5.270;2023-02-15T02:45:28;103040.84;;;14.78;47.67
55656;BME280;41530;52.382;5.270;2023-02-15T02:48:07;103040.84;;;14.78;47.83
55656;BME280;41530;52.382;5.270;2023-02-15T02:50:34;103036.69;;;14.72;47.94
55656;BME280;41530;52.382;5.270;2023-02-15T02:53:00;103036.63;;;14.74;47.78
55656;BME280;41530;52.382;5.270;2023-02-15T02:55:35;103027.75;;;14.75;47.53
55656;BME280;41530;52.382;5.270;2023-02-15T03:00:46;103024.31;;;14.73;47.76
55656;BME280;41530;52.382;5.270;2023-02-15T03:03:27;103026.16;;;14.71;47.59
55656;BME280;41530;52.382;5.270;2023-02-15T03:06:02;103020.88;;;14.71;47.66
55656;BME280;41530;52.382;5.270;2023-02-15T03:08:37;103014.78;;;14.69;47.59
55656;BME280;41530;52.382;5.270;2023-02-15T03:11:04;103006.84;;;14.69;47.85
55656;BME280;41530;52.382;5.270;2023-02-15T03:13:32;103007.78;;;14.68;47.84
55656;BME280;41530;52.382;5.270;2023-02-15T03:16:00;102998.31;;;14.64;47.80
55656;BME280;41530;52.382;5.270;2023-02-15T03:18:51;103002.56;;;14.66;47.65
55656;BME280;41530;52.382;5.270;2023-02-15T03:21:30;102995.53;;;14.65;47.73
55656;BME280;41530;52.382;5.270;2023-02-15T03:24:03;102978.28;;;14.58;47.62
55656;BME280;41530;52.382;5.270;2023-02-15T03:26:34;102988.72;;;14.61;47.58
55656;BME280;41530;52.382;5.270;2023-02-15T03:29:04;102984.50;;;14.57;47.71
55656;BME280;41530;52.382;5.270;2023-02-15T03:31:37;102987.16;;;14.57;47.62
55656;BME280;41530;52.382;5.270;2023-02-15T03:34:06;102977.66;;;14.53;47.56
55656;BME280;41530;52.382;5.270;2023-02-15T03:36:43;102984.50;;;14.57;47.41
55656;BME280;41530;52.382;5.270;2023-02-15T03:41:58;102984.50;;;14.57;47.49
55656;BME280;41530;52.382;5.270;2023-02-15T03:44:32;102982.00;;;14.54;47.51
55656;BME280;41530;52.382;5.270;2023-02-15T03:47:06;102972.75;;;14.45;47.62
55656;BME280;41530;52.382;5.270;2023-02-15T03:49:40;102986.38;;;14.55;47.52
55656;BME280;41530;52.382;5.270;2023-02-15T03:52:10;102985.59;;;14.53;47.54
55656;BME280;41530;52.382;5.270;2023-02-15T03:54:39;102977.91;;;14.48;47.59
55656;BME280;41530;52.382;5.270;2023-02-15T03:57:26;102981.41;;;14.49;47.28
55656;BME280;41530;52.382;5.270;2023-02-15T04:00:17;102982.28;;;14.49;47.37
55656;BME280;41530;52.382;5.270;2023-02-15T04:05:43;102970.13;;;14.45;47.49
55656;BME280;41530;52.382;5.270;2023-02-15T04:08:10;102960.53;;;14.43;47.56
55656;BME280;41530;52.382;5.270;2023-02-15T04:10:37;102966.63;;;14.45;47.62
55656;BME280;41530;52.382;5.270;2023-02-15T04:13:21;102966.53;;;14.46;47.68
55656;BME280;41530;52.382;5.270;2023-02-15T04:15:49;102961.31;;;14.45;47.65
55656;BME280;41530;52.382;5.270;2023-02-15T04:18:41;102963.88;;;14.46;47.49
55656;BME280;41530;52.382;5.270;2023-02-15T04:21:29;102963.97;;;14.45;47.51
55656;BME280;41530;52.382;5.270;2023-02-15T04:24:15;102963.09;;;14.44;47.30
55656;BME280;41530;52.382;5.270;2023-02-15T04:27:01;102957.03;;;14.42;47.62
55656;BME280;41530;52.382;5.270;2023-02-15T04:29:30;102948.31;;;14.40;47.73
55656;BME280;41530;52.382;5.270;2023-02-15T04:31:59;102950.88;;;14.42;47.69
55656;BME280;41530;52.382;5.270;2023-02-15T04:34:26;102949.16;;;14.41;47.79
55656;BME280;41530;52.382;5.270;2023-02-15T04:36:52;102948.34;;;14.39;47.65
55656;BME280;41530;52.382;5.270;2023-02-15T04:39:19;102946.75;;;14.36;47.80
55656;BME280;41530;52.382;5.270;2023-02-15T04:41:46;102945.69;;;14.39;47.70
55656;BME280;41530;52.382;5.270;2023-02-15T04:44:14;102949.31;;;14.38;47.84
55656;BME280;41530;52.382;5.270;2023-02-15T04:46:41;102952.75;;;14.40;47.83
55656;BME280;41530;52.382;5.270;2023-02-15T04:49:08;102939.66;;;14.37;47.81
55656;BME280;41530;52.382;5.270;2023-02-15T04:51:35;102949.16;;;14.41;47.79
55656;BME280;41530;52.382;5.270;2023-02-15T04:54:01;102934.25;;;14.38;47.74
55656;BME280;41530;52.382;5.270;2023-02-15T04:56:28;102926.56;;;14.34;47.99
55656;BME280;41530;52.382;5.270;2023-02-15T04:58:56;102929.91;;;14.37;47.74
55656;BME280;41530;52.382;5.270;2023-02-15T05:01:23;102921.28;;;14.34;47.52
55656;BME280;41530;52.382;5.270;2023-02-15T05:03:49;102926.50;;;14.35;47.77
55656;BME280;41530;52.382;5.270;2023-02-15T05:06:16;102925.63;;;14.35;47.85
55656;BME280;41530;52.382;5.270;2023-02-15T05:08:43;102924.69;;;14.36;47.73
55656;BME280;41530;52.382;5.270;2023-02-15T05:11:09;102921.44;;;14.31;47.61
55656;BME280;41530;52.382;5.270;2023-02-15T05:13:36;102923.22;;;14.30;47.82
55656;BME280;41530;52.382;5.270;2023-02-15T05:16:03;102927.66;;;14.30;47.72
55656;BME280;41530;52.382;5.270;2023-02-15T05:18:29;102924.94;;;14.31;47.64
55656;BME280;41530;52.382;5.270;2023-02-15T05:20:56;102939.19;;;14.28;47.78
55656;BME280;41530;52.382;5.270;2023-02-15T05:23:23;102933.81;;;14.30;47.90
55656;BME280;41530;52.382;5.270;2023-02-15T05:25:50;102928.59;;;14.28;47.71
55656;BME280;41530;52.382;5.270;2023-02-15T05:28:36;102929.53;;;14.27;47.77
55656;BME280;41530;52.382;5.270;2023-02-15T05:33:34;102935.00;;;14.24;47.77
55656;BME280;41530;52.382;5.270;2023-02-15T05:36:02;102935.75;;;14.26;47.76
55656;BME280;41530;52.382;5.270;2023-02-15T05:38:30;102925.34;;;14.23;47.81
55656;BME280;41530;52.382;5.270;2023-02-15T05:40:57;102926.09;;;14.25;47.66
55656;BME280;41530;52.382;5.270;2023-02-15T05:43:25;102919.94;;;14.25;47.68
55656;BME280;41530;52.382;5.270;2023-02-15T05:45:53;102922.59;;;14.25;47.71
55656;BME280;41530;52.382;5.270;2023-02-15T05:48:22;102928.94;;;14.22;47.82
55656;BME280;41530;52.382;5.270;2023-02-15T05:51:00;102927.13;;;14.23;47.41
55656;BME280;41530;52.382;5.270;2023-02-15T05:53:27;102917.72;;;14.17;47.61
55656;BME280;41530;52.382;5.270;2023-02-15T05:55:55;102919.34;;;14.20;47.70
55656;BME280;41530;52.382;5.270;2023-02-15T05:58:26;102923.69;;;14.21;47.80
55656;BME280;41530;52.382;5.270;2023-02-15T06:00:53;102930.78;;;14.20;47.53
55656;BME280;41530;52.382;5.270;2023-02-15T06:03:21;102920.19;;;14.20;47.66
55656;BME280;41530;52.382;5.270;2023-02-15T06:05:48;102914.06;;;14.20;47.73
55656;BME280;41530;52.382;5.270;2023-02-15T06:08:15;102913.13;;;14.21;47.75
55656;BME280;41530;52.382;5.270;2023-02-15T06:10:42;102906.03;;;14.21;47.67
55656;BME280;41530;52.382;5.270;2023-02-15T06:13:08;102900.66;;;14.23;47.73
55656;BME280;41530;52.382;5.270;2023-02-15T06:15:35;102905.69;;;14.27;47.76
55656;BME280;41530;52.382;5.270;2023-02-15T06:18:01;102905.63;;;14.29;47.77
55656;BME280;41530;52.382;5.270;2023-02-15T06:20:28;102906.47;;;14.30;47.50
55656;BME280;41530;52.382;5.270;2023-02-15T06:22:55;102894.25;;;14.27;47.72
55656;BME280;41530;52.382;5.270;2023-02-15T06:25:21;102906.47;;;14.30;47.64
55656;BME280;41530;52.382;5.270;2023-02-15T06:27:48;102901.97;;;14.32;47.56
55656;BME280;41530;52.382;5.270;2023-02-15T06:30:16;102897.59;;;14.31;47.58
55656;BME280;41530;52.382;5.270;2023-02-15T06:32:43;102894.16;;;14.28;47.42
55656;BME280;41530;52.382;5.270;2023-02-15T06:35:09;102889.03;;;14.25;47.53
55656;BME280;41530;52.382;5.270;2023-02-15T06:37:36;102887.34;;;14.24;47.50
55656;BME280;41530;52.382;5.270;2023-02-15T06:40:03;102894.16;;;14.28;47.28
55656;BME280;41530;52.382;5.270;2023-02-15T06:42:30;102904.69;;;14.30;47.53
55656;BME280;41530;52.382;5.270;2023-02-15T06:44:57;102888.94;;;14.27;47.47
55656;BME280;41530;52.382;5.270;2023-02-15T06:47:25;102893.47;;;14.25;47.52
55656;BME280;41530;52.382;5.270;2023-02-15T06:49:52;102902.03;;;14.30;47.71
55656;BME280;41530;52.382;5.270;2023-02-15T06:52:18;102897.59;;;14.31;47.68
55656;BME280;41530;52.382;5.270;2023-02-15T06:54:45;102909.91;;;14.32;47.77
55656;BME280;41530;52.382;5.270;2023-02-15T06:57:11;102902.88;;;14.31;47.74
55656;BME280;41530;52.382;5.270;2023-02-15T06:59:38;102909.03;;;14.31;47.76
55656;BME280;41530;52.382;5.270;2023-02-15T07:02:05;102908.97;;;14.33;47.68
55656;BME280;41530;52.382;5.270;2023-02-15T07:04:32;102902.88;;;14.31;47.74
55656;BME280;41530;52.382;5.270;2023-02-15T07:06:58;102902.03;;;14.30;47.70
55656;BME280;41530;52.382;5.270;2023-02-15T07:09:25;102899.38;;;14.30;47.77
55656;BME280;41530;52.382;5.270;2023-02-15T07:11:52;102894.09;;;14.30;47.64
55656;BME280;41530;52.382;5.270;2023-02-15T07:14:37;102889.66;;;14.31;47.72
55656;BME280;41530;52.382;5.270;2023-02-15T07:17:04;102905.47;;;14.32;47.62
55656;BME280;41530;52.382;5.270;2023-02-15T07:19:40;102907.19;;;14.33;47.62
55656;BME280;41530;52.382;5.270;2023-02-15T07:22:06;102905.38;;;14.34;47.79
55656;BME280;41530;52.382;5.270;2023-02-15T07:24:33;102895.09;;;14.27;47.68
55656;BME280;41530;52.382;5.270;2023-02-15T07:26:59;102894.78;;;14.34;47.79
55656;BME280;41530;52.382;5.270;2023-02-15T07:29:26;102893.00;;;14.34;47.80
55656;BME280;41530;52.382;5.270;2023-02-15T07:31:53;102884.28;;;14.32;47.88
55656;BME280;41530;52.382;5.270;2023-02-15T07:34:19;102878.91;;;14.34;47.82
55656;BME280;41530;52.382;5.270;2023-02-15T07:36:46;102876.09;;;14.37;47.67
55656;BME280;41530;52.382;5.270;2023-02-15T07:39:13;102870.66;;;14.40;47.78
55656;BME280;41530;52.382;5.270;2023-02-15T07:41:39;102855.66;;;14.39;47.12
55656;BME280;41530;52.382;5.270;2023-02-15T07:44:11;102853.81;;;14.41;46.98
55656;BME280;41530;52.382;5.270;2023-02-15T07:46:38;102860.75;;;14.43;47.10
55656;BME280;41530;52.382;5.270;2023-02-15T07:49:05;102853.88;;;14.39;47.38
55656;BME280;41530;52.382;5.270;2023-02-15T07:51:32;102863.25;;;14.46;47.26
55656;BME280;41530;52.382;5.270;2023-02-15T07:53:58;102862.16;;;14.50;47.14
55656;BME280;41530;52.382;5.270;2023-02-15T07:56:25;102862.16;;;14.50;47.20
55656;BME280;41530;52.382;5.270;2023-02-15T07:58:52;102857.53;;;14.54;47.04
55656;BME280;41530;52.382;5.270;2023-02-15T08:01:24;102857.44;;;14.55;47.05
55656;BME280;41530;52.382;5.270;2023-02-15T08:03:53;102857.28;;;14.58;46.95
55656;BME280;41530;52.382;5.270;2023-02-15T08:06:22;102848.56;;;14.56;46.85
55656;BME280;41530;52.382;5.270;2023-02-15T08:08:49;102854.56;;;14.60;46.89
55656;BME280;41530;52.382;5.270;2023-02-15T08:13:53;102844.53;;;14.65;47.00
55656;BME280;41530;52.382;5.270;2023-02-15T08:16:40;102847.09;;;14.67;46.64
55656;BME280;41530;52.382;5.270;2023-02-15T08:19:18;102836.59;;;14.65;47.09
55656;BME280;41530;52.382;5.270;2023-02-15T08:21:50;102836.28;;;14.71;46.76
55656;BME280;41530;52.382;5.270;2023-02-15T08:24:19;102826.59;;;14.70;46.97
55656;BME280;41530;52.382;5.270;2023-02-15T08:26:47;102834.16;;;14.78;46.85
55656;BME280;41530;52.382;5.270;2023-02-15T08:29:15;102833.00;;;14.82;46.92
55656;BME280;41530;52.382;5.270;2023-02-15T08:31:42;102835.41;;;14.86;46.80
55656;BME280;41530;52.382;5.270;2023-02-15T08:34:12;102834.31;;;14.90;46.83
55656;BME280;41530;52.382;5.270;2023-02-15T08:36:39;102821.72;;;14.94;46.68
55656;BME280;41530;52.382;5.270;2023-02-15T08:39:06;102815.75;;;14.90;46.72
55656;BME280;41530;52.382;5.270;2023-02-15T08:41:35;102826.59;;;15.02;46.69
55656;BME280;41530;52.382;5.270;2023-02-15T08:44:04;102822.94;;;15.04;46.80
55656;BME280;41530;52.382;5.270;2023-02-15T08:46:37;102829.66;;;15.10;46.78
55656;BME280;41530;52.382;5.270;2023-02-15T08:49:05;102832.16;;;15.13;46.79
55656;BME280;41530;52.382;5.270;2023-02-15T08:51:34;102831.22;;;15.14;46.74
55656;BME280;41530;52.382;5.270;2023-02-15T08:54:04;102833.00;;;15.13;46.75
55656;BME280;41530;52.382;5.270;2023-02-15T08:56:37;102828.56;;;15.14;46.74
55656;BME280;41530;52.382;5.270;2023-02-15T08:59:04;102824.97;;;15.15;46.86
55656;BME280;41530;52.382;5.270;2023-02-15T09:01:33;102824.97;;;15.15;46.69
55656;BME280;41530;52.382;5.270;2023-02-15T09:04:04;102820.31;;;15.18;46.64
55656;BME280;41530;52.382;5.270;2023-02-15T09:06:32;102819.28;;;15.21;46.94
55656;BME280;41530;52.382;5.270;2023-02-15T09:08:59;102811.41;;;15.19;46.49
55656;BME280;41530;52.382;5.270;2023-02-15T09:11:28;102817.16;;;15.27;46.66
55656;BME280;41530;52.382;5.270;2023-02-15T09:14:00;102823.22;;;15.29;46.41
55656;BME280;41530;52.382;5.270;2023-02-15T09:16:29;102817.00;;;15.30;46.51
55656;BME280;41530;52.382;5.270;2023-02-15T09:18:58;102814.34;;;15.30;46.77
55656;BME280;41530;52.382;5.270;2023-02-15T09:21:25;102798.75;;;15.24;46.83
55656;BME280;41530;52.382;5.270;2023-02-15T09:23:56;102802.66;;;15.33;46.53
55656;BME280;41530;52.382;5.270;2023-02-15T09:26:24;102798.22;;;15.33;46.68
55656;BME280;41530;52.382;5.270;2023-02-15T09:28:53;102793.00;;;15.32;46.61
55656;BME280;41530;52.382;5.270;2023-02-15T09:31:25;102797.00;;;15.39;46.32
55656;BME280;41530;52.382;5.270;2023-02-15T09:33:53;102802.22;;;15.41;46.50
55656;BME280;41530;52.382;5.270;2023-02-15T09:39:31;102789.81;;;15.41;46.63
55656;BME280;41530;52.382;5.270;2023-02-15T09:56:26;102811.31;;;15.37;46.77
55656;BME280;41530;52.382;5.270;2023-02-15T10:15:52;102827.22;;;15.37;46.81
55656;BME280;41530;52.382;5.270;2023-02-15T10:21:19;102829.88;;;15.37;47.03
55656;BME280;41530;52.382;5.270;2023-02-15T10:24:54;102828.06;;;15.37;46.95
55656;BME280;41530;52.382;5.270;2023-02-15T10:27:15;102830.72;;;15.37;47.18
55656;BME280;41530;52.382;5.270;2023-02-15T10:32:27;102835.84;;;15.40;47.30
55656;BME280;41530;52.382;5.270;2023-02-15T10:35:01;102823.53;;;15.39;47.14
55656;BME280;41530;52.382;5.270;2023-02-15T10:42:59;102813.53;;;15.44;47.42
55656;BME280;41530;52.382;5.270;2023-02-15T10:51:05;102803.66;;;15.46;47.35
55656;BME280;41530;52.382;5.270;2023-02-15T10:56:25;102800.16;;;15.46;47.29
55656;BME280;41530;52.382;5.270;2023-02-15T11:01:44;102797.50;;;15.46;47.44
55656;BME280;41530;52.382;5.270;2023-02-15T11:09:50;102782.44;;;15.46;47.86
55656;BME280;41530;52.382;5.270;2023-02-15T11:12:20;102775.53;;;15.44;47.51
55656;BME280;41530;52.382;5.270;2023-02-15T11:17:25;102774.56;;;15.45;48.00
55656;BME280;41530;52.382;5.270;2023-02-15T11:20:24;102768.44;;;15.44;47.90
55656;BME280;41530;52.382;5.270;2023-02-15T11:22:48;102753.47;;;15.43;48.01
55656;BME280;41530;52.382;5.270;2023-02-15T11:25:24;102747.47;;;15.40;47.84
55656;BME280;41530;52.382;5.270;2023-02-15T11:27:51;102747.22;;;15.44;48.35
55656;BME280;41530;52.382;5.270;2023-02-15T11:30:25;102741.91;;;15.44;48.36
55656;BME280;41530;52.382;5.270;2023-02-15T11:32:56;102729.00;;;15.38;48.47
55656;BME280;41530;52.382;5.270;2023-02-15T11:35:28;102734.78;;;15.45;48.40
55656;BME280;41530;52.382;5.270;2023-02-15T11:38:14;102733.84;;;15.46;48.54
55656;BME280;41530;52.382;5.270;2023-02-15T11:40:49;102727.66;;;15.45;48.79
55656;BME280;41530;52.382;5.270;2023-02-15T11:45:49;102716.41;;;15.42;48.90
55656;BME280;41530;52.382;5.270;2023-02-15T11:48:17;102714.31;;;15.47;49.34
55656;BME280;41530;52.382;5.270;2023-02-15T11:50:44;102707.31;;;15.46;49.09
55656;BME280;41530;52.382;5.270;2023-02-15T11:53:14;102703.53;;;15.50;49.02
55656;BME280;41530;52.382;5.270;2023-02-15T11:55:44;102691.41;;;15.46;49.45
55656;BME280;41530;52.382;5.270;2023-02-15T11:58:25;102684.88;;;15.51;49.66
55656;BME280;41530;52.382;5.270;2023-02-15T12:03:50;102687.34;;;15.54;49.83
55656;BME280;41530;52.382;5.270;2023-02-15T12:06:29;102682.13;;;15.53;49.79
55656;BME280;41530;52.382;5.270;2023-02-15T12:09:01;102678.53;;;15.54;48.87
55656;BME280;41530;52.382;5.270;2023-02-15T12:11:37;102686.59;;;15.52;48.21
55656;BME280;41530;52.382;5.270;2023-02-15T12:14:09;102676.16;;;15.49;47.55
55656;BME280;41530;52.382;5.270;2023-02-15T12:16:49;102684.19;;;15.48;47.33
55656;BME280;41530;52.382;5.270;2023-02-15T12:21:49;102671.88;;;15.47;47.77
55656;BME280;41530;52.382;5.270;2023-02-15T12:24:22;102671.03;;;15.46;47.93
55656;BME280;41530;52.382;5.270;2023-02-15T12:27:16;102665.25;;;15.40;47.53
55656;BME280;41530;52.382;5.270;2023-02-15T12:32:51;102673.22;;;15.40;46.62
55656;BME280;41530;52.382;5.270;2023-02-15T12:35:30;102670.38;;;15.43;46.39
55656;BME280;41530;52.382;5.270;2023-02-15T12:38:03;102662.53;;;15.41;46.64
55656;BME280;41530;52.382;5.270;2023-02-15T12:40:32;102661.56;;;15.42;47.01
55656;BME280;41530;52.382;5.270;2023-02-15T12:43:00;102654.47;;;15.43;47.19
55656;BME280;41530;52.382;5.270;2023-02-15T12:45:36;102648.59;;;15.38;46.84
55656;BME280;41530;52.382;5.270;2023-02-15T12:48:18;102651.91;;;15.41;47.01
55656;BME280;41530;52.382;5.270;2023-02-15T12:50:47;102647.56;;;15.40;47.67
55656;BME280;41530;52.382;5.270;2023-02-15T12:53:31;102647.16;;;15.46;47.56
55656;BME280;41530;52.382;5.270;2023-02-15T12:56:03;102655.03;;;15.48;47.59
55656;BME280;41530;52.382;5.270;2023-02-15T12:58:32;102656.06;;;15.45;47.78
55656;BME280;41530;52.382;5.270;2023-02-15T13:01:15;102661.19;;;15.48;47.77
55656;BME280;41530;52.382;5.270;2023-02-15T13:04:06;102651.34;;;15.50;48.43
55656;BME280;41530;52.382;5.270;2023-02-15T13:06:47;102650.38;;;15.51;48.44
55656;BME280;41530;52.382;5.270;2023-02-15T13:09:20;102630.22;;;15.49;48.94
55656;BME280;41530;52.382;5.270;2023-02-15T13:11:47;102631.06;;;15.49;48.82
55656;BME280;41530;52.382;5.270;2023-02-15T13:14:19;102642.34;;;15.53;48.98
55656;BME280;41530;52.382;5.270;2023-02-15T13:16:48;102633.72;;;15.49;49.34
55656;BME280;41530;52.382;5.270;2023-02-15T13:22:08;102633.44;;;15.54;49.22
55656;BME280;41530;52.382;5.270;2023-02-15T13:24:40;102634.28;;;15.54;49.23
55656;BME280;41530;52.382;5.270;2023-02-15T13:27:12;102635.19;;;15.55;48.96
55656;BME280;41530;52.382;5.270;2023-02-15T13:29:44;102637.81;;;15.55;49.03
55656;BME280;41530;52.382;5.270;2023-02-15T13:32:36;102624.47;;;15.56;49.20
55656;BME280;41530;52.382;5.270;2023-02-15T13:35:05;102625.47;;;15.54;49.59
55656;BME280;41530;52.382;5.270;2023-02-15T13:40:46;102633.06;;;15.60;49.10
55656;BME280;41530;52.382;5.270;2023-02-15T13:43:30;102634.78;;;15.61;49.23
55656;BME280;41530;52.382;5.270;2023-02-15T13:49:06;102629.47;;;15.61;49.71
55656;BME280;41530;52.382;5.270;2023-02-15T13:54:36;102619.81;;;15.60;49.79
55656;BME280;41530;52.382;5.270;2023-02-15T13:59:51;102625.78;;;15.63;49.45
55656;BME280;41530;52.382;5.270;2023-02-15T14:11:15;102608.34;;;15.59;49.60
55656;BME280;41530;52.382;5.270;2023-02-15T14:14:11;102608.91;;;15.64;50.17
55656;BME280;41530;52.382;5.270;2023-02-15T14:17:04;102606.25;;;15.64;50.10
55656;BME280;41530;52.382;5.270;2023-02-15T14:24:43;102597.44;;;15.64;49.84
55656;BME280;41530;52.382;5.270;2023-02-15T14:29:53;102606.94;;;15.68;50.04
55656;BME280;41530;52.382;5.270;2023-02-15T14:35:01;102593.75;;;15.66;50.39
55656;BME280;41530;52.382;5.270;2023-02-15T14:48:52;102608.81;;;15.66;51.19
55656;BME280;41530;52.382;5.270;2023-02-15T14:51:54;102601.91;;;15.63;50.96
55656;BME280;41530;52.382;5.270;2023-02-15T15:02:12;102607.78;;;15.68;51.04
55656;BME280;41530;52.382;5.270;2023-02-15T15:04:44;102596.31;;;15.68;50.66
55656;BME280;41530;52.382;5.270;2023-02-15T15:09:40;102604.91;;;15.72;50.58
55656;BME280;41530;52.382;5.270;2023-02-15T15:14:47;102588.25;;;15.70;50.38
55656;BME280;41530;52.382;5.270;2023-02-15T15:20:12;102596.84;;;15.73;50.06
55656;BME280;41530;52.382;5.270;2023-02-15T15:22:43;102597.81;;;15.72;50.10
55656;BME280;41530;52.382;5.270;2023-02-15T15:25:11;102607.38;;;15.75;49.91
55656;BME280;41530;52.382;5.270;2023-02-15T15:35:33;102582.53;;;15.76;50.33
55656;BME280;41530;52.382;5.270;2023-02-15T15:49:34;102569.28;;;15.76;50.37
55656;BME280;41530;52.382;5.270;2023-02-15T15:52:12;102563.13;;;15.75;50.14
55656;BME280;41530;52.382;5.270;2023-02-15T15:54:40;102562.25;;;15.75;50.61
55656;BME280;41530;52.382;5.270;2023-02-15T15:57:22;102566.63;;;15.76;50.31
55656;BME280;41530;52.382;5.270;2023-02-15T15:59:53;102567.47;;;15.76;50.12
55656;BME280;41530;52.382;5.270;2023-02-15T16:02:20;102573.72;;;15.75;50.04
55656;BME280;41530;52.382;5.270;2023-02-15T16:04:47;102563.88;;;15.77;50.09
55656;BME280;41530;52.382;5.270;2023-02-15T16:09:54;102561.31;;;15.76;50.06
55656;BME280;41530;52.382;5.270;2023-02-15T16:12:22;102567.38;;;15.78;50.69
55656;BME280;41530;52.382;5.270;2023-02-15T16:14:49;102570.31;;;15.73;50.44
55656;BME280;41530;52.382;5.270;2023-02-15T16:17:30;102571.09;;;15.75;50.33
55656;BME280;41530;52.382;5.270;2023-02-15T16:20:03;102560.38;;;15.77;50.36
55656;BME280;41530;52.382;5.270;2023-02-15T16:22:32;102562.25;;;15.75;51.42
55656;BME280;41530;52.382;5.270;2023-02-15T16:27:57;102562.16;;;15.76;50.77
55656;BME280;41530;52.382;5.270;2023-02-15T16:30:30;102563.88;;;15.77;51.06
55656;BME280;41530;52.382;5.270;2023-02-15T16:33:33;102561.22;;;15.77;51.60
55656;BME280;41530;52.382;5.270;2023-02-15T16:36:00;102567.28;;;15.79;51.17
55656;BME280;41530;52.382;5.270;2023-02-15T16:41:29;102561.22;;;15.77;51.47
55656;BME280;41530;52.382;5.270;2023-02-15T16:43:58;102558.56;;;15.77;51.24